Aviation Digital Data Service (ADDS)

Output produced by METARs form (1418 UTC 10 August 2022)
found at http://www.aviationweather.gov/metar/data/
 
METAR text: ZSFZ 101400Z 08001MPS 9999 BKN046 29/26 Q1010 NOSIG
Conditions at: ZSFZ (FUZHOU , CN) observed 1400 UTC 10 August 2022
Temperature: 29.0°C (84°F)
Dewpoint: 26.0°C (79°F) [RH = 84%]
Pressure (altimeter): 29.82 inches Hg (1010.0 mb)
Winds: from the E (80 degrees) at 2 MPH (2 knots; 1.0 m/s)
Visibility: 6 or more miles (10+ km)
Ceiling: 4600 feet AGL
Clouds: broken clouds at 4600 feet AGL
Weather: no significant weather observed at this time

METAR text: ZSFZ 101300Z 14002MPS CAVOK 29/26 Q1009 NOSIG
Conditions at: ZSFZ (FUZHOU , CN) observed 1300 UTC 10 August 2022
Temperature: 29.0°C (84°F)
Dewpoint: 26.0°C (79°F) [RH = 84%]
Pressure (altimeter): 29.79 inches Hg (1009.0 mb)
Winds: from the SE (140 degrees) at 5 MPH (4 knots; 2.1 m/s)
Visibility: 6 or more miles (10+ km)
Ceiling: ceiling and visibility are OK
Clouds: unknown
Weather: no significant weather observed at this time

METAR text: ZSFZ 101200Z VRB01MPS CAVOK 29/25 Q1008 NOSIG
Conditions at: ZSFZ (FUZHOU , CN) observed 1200 UTC 10 August 2022
Temperature: 29.0°C (84°F)
Dewpoint: 25.0°C (77°F) [RH = 79%]
Pressure (altimeter): 29.76 inches Hg (1008.0 mb)
Winds: variable direction winds at 2 MPH (2 knots; 1.0 m/s)
Visibility: 6 or more miles (10+ km)
Ceiling: ceiling and visibility are OK
Clouds: unknown
Weather: no significant weather observed at this time

METAR text: ZSFZ 101100Z 11002MPS 060V130 CAVOK 30/25 Q1008 NOSIG
Conditions at: ZSFZ (FUZHOU , CN) observed 1100 UTC 10 August 2022
Temperature: 30.0°C (86°F)
Dewpoint: 25.0°C (77°F) [RH = 75%]
Pressure (altimeter): 29.76 inches Hg (1008.0 mb)
Winds: from the ESE (110 degrees) at 5 MPH (4 knots; 2.1 m/s)
Visibility: 6 or more miles (10+ km)
Ceiling: ceiling and visibility are OK
Clouds: unknown
Weather: no significant weather observed at this time

METAR text: ZSFZ 101000Z 09003MPS 050V120 9999 FEW026 31/25 Q1007 NOSIG
Conditions at: ZSFZ (FUZHOU , CN) observed 1000 UTC 10 August 2022
Temperature: 31.0°C (88°F)
Dewpoint: 25.0°C (77°F) [RH = 71%]
Pressure (altimeter): 29.73 inches Hg (1007.0 mb)
Winds: from the E (90 degrees) at 7 MPH (6 knots; 3.1 m/s)
Visibility: 6 or more miles (10+ km)
Ceiling: at least 12,000 feet AGL
Clouds: few clouds at 2600 feet AGL
Weather: no significant weather observed at this time

METAR text: ZSFZ 100900Z 11004MPS 070V140 9999 FEW026 FEW026TCU 32/25 Q1007 NOSIG
Conditions at: ZSFZ (FUZHOU , CN) observed 0900 UTC 10 August 2022
Temperature: 32.0°C (90°F)
Dewpoint: 25.0°C (77°F) [RH = 67%]
Pressure (altimeter): 29.73 inches Hg (1007.0 mb)
Winds: from the ESE (110 degrees) at 9 MPH (8 knots; 4.1 m/s)
Visibility: 6 or more miles (10+ km)
Ceiling: at least 12,000 feet AGL
Clouds: few clouds at 2600 feet AGL
few clouds at 2600 feet AGL
Weather: no significant weather observed at this time

METAR text: ZSFZ 100800Z 10005MPS 060V130 9999 FEW026 33/26 Q1007 NOSIG
Conditions at: ZSFZ (FUZHOU , CN) observed 0800 UTC 10 August 2022
Temperature: 33.0°C (91°F)
Dewpoint: 26.0°C (79°F) [RH = 67%]
Pressure (altimeter): 29.73 inches Hg (1007.0 mb)
Winds: from the E (100 degrees) at 12 MPH (10 knots; 5.1 m/s)
Visibility: 6 or more miles (10+ km)
Ceiling: at least 12,000 feet AGL
Clouds: few clouds at 2600 feet AGL
Weather: no significant weather observed at this time

METAR text: ZSFZ 100700Z 09004MPS 9999 FEW026 FEW026TCU 35/26 Q1008 NOSIG
Conditions at: ZSFZ (FUZHOU , CN) observed 0700 UTC 10 August 2022
Temperature: 35.0°C (95°F)
Dewpoint: 26.0°C (79°F) [RH = 60%]
Pressure (altimeter): 29.76 inches Hg (1008.0 mb)
Winds: from the E (90 degrees) at 9 MPH (8 knots; 4.1 m/s)
Visibility: 6 or more miles (10+ km)
Ceiling: at least 12,000 feet AGL
Clouds: few clouds at 2600 feet AGL
few clouds at 2600 feet AGL
Weather: no significant weather observed at this time

METAR text: ZSFZ 100600Z 09004MPS 9999 FEW026 FEW026TCU 34/25 Q1008 NOSIG
Conditions at: ZSFZ (FUZHOU , CN) observed 0600 UTC 10 August 2022
Temperature: 34.0°C (93°F)
Dewpoint: 25.0°C (77°F) [RH = 60%]
Pressure (altimeter): 29.76 inches Hg (1008.0 mb)
Winds: from the E (90 degrees) at 9 MPH (8 knots; 4.1 m/s)
Visibility: 6 or more miles (10+ km)
Ceiling: at least 12,000 feet AGL
Clouds: few clouds at 2600 feet AGL
few clouds at 2600 feet AGL
Weather: no significant weather observed at this time

METAR text: ZSFZ 100500Z 11005MPS 9999 FEW026 34/25 Q1008 NOSIG
Conditions at: ZSFZ (FUZHOU , CN) observed 0500 UTC 10 August 2022
Temperature: 34.0°C (93°F)
Dewpoint: 25.0°C (77°F) [RH = 60%]
Pressure (altimeter): 29.76 inches Hg (1008.0 mb)
Winds: from the ESE (110 degrees) at 12 MPH (10 knots; 5.1 m/s)
Visibility: 6 or more miles (10+ km)
Ceiling: at least 12,000 feet AGL
Clouds: few clouds at 2600 feet AGL
Weather: no significant weather observed at this time

METAR text: ZSFZ 100400Z 11004MPS 060V150 9999 FEW026TCU FEW026 34/25 Q1008 NOSIG
Conditions at: ZSFZ (FUZHOU , CN) observed 0400 UTC 10 August 2022
Temperature: 34.0°C (93°F)
Dewpoint: 25.0°C (77°F) [RH = 60%]
Pressure (altimeter): 29.76 inches Hg (1008.0 mb)
Winds: from the ESE (110 degrees) at 9 MPH (8 knots; 4.1 m/s)
Visibility: 6 or more miles (10+ km)
Ceiling: at least 12,000 feet AGL
Clouds: few clouds at 2600 feet AGL
few clouds at 2600 feet AGL
Weather: no significant weather observed at this time

METAR text: ZSFZ 100300Z 08004MPS 050V120 9999 SCT030 34/24 Q1009 NOSIG
Conditions at: ZSFZ (FUZHOU , CN) observed 0300 UTC 10 August 2022
Temperature: 34.0°C (93°F)
Dewpoint: 24.0°C (75°F) [RH = 56%]
Pressure (altimeter): 29.79 inches Hg (1009.0 mb)
Winds: from the E (80 degrees) at 9 MPH (8 knots; 4.1 m/s)
Visibility: 6 or more miles (10+ km)
Ceiling: at least 12,000 feet AGL
Clouds: scattered clouds at 3000 feet AGL
Weather: no significant weather observed at this time

METAR text: ZSFZ 100200Z 10003MPS 9999 BKN026 32/25 Q1009 NOSIG
Conditions at: ZSFZ (FUZHOU , CN) observed 0200 UTC 10 August 2022
Temperature: 32.0°C (90°F)
Dewpoint: 25.0°C (77°F) [RH = 67%]
Pressure (altimeter): 29.79 inches Hg (1009.0 mb)
Winds: from the E (100 degrees) at 7 MPH (6 knots; 3.1 m/s)
Visibility: 6 or more miles (10+ km)
Ceiling: 2600 feet AGL
Clouds: broken clouds at 2600 feet AGL
Weather: no significant weather observed at this time

METAR text: ZSFZ 100100Z 01002MPS 280V070 9999 BKN026 31/24 Q1008 NOSIG
Conditions at: ZSFZ (FUZHOU , CN) observed 0100 UTC 10 August 2022
Temperature: 31.0°C (88°F)
Dewpoint: 24.0°C (75°F) [RH = 66%]
Pressure (altimeter): 29.76 inches Hg (1008.0 mb)
Winds: from the N (10 degrees) at 5 MPH (4 knots; 2.1 m/s)
Visibility: 6 or more miles (10+ km)
Ceiling: 2600 feet AGL
Clouds: broken clouds at 2600 feet AGL
Weather: no significant weather observed at this time

METAR text: ZSFZ 100000Z 36002MPS 290V050 9999 SCT030 31/24 Q1008 NOSIG
Conditions at: ZSFZ (FUZHOU , CN) observed 0000 UTC 10 August 2022
Temperature: 31.0°C (88°F)
Dewpoint: 24.0°C (75°F) [RH = 66%]
Pressure (altimeter): 29.76 inches Hg (1008.0 mb)
Winds: from the N (360 degrees) at 5 MPH (4 knots; 2.1 m/s)
Visibility: 6 or more miles (10+ km)
Ceiling: at least 12,000 feet AGL
Clouds: scattered clouds at 3000 feet AGL
Weather: no significant weather observed at this time

METAR text: ZSFZ 092300Z 31002MPS 280V350 9999 FEW033 30/24 Q1008 NOSIG
Conditions at: ZSFZ (FUZHOU , CN) observed 2300 UTC 09 August 2022
Temperature: 30.0°C (86°F)
Dewpoint: 24.0°C (75°F) [RH = 70%]
Pressure (altimeter): 29.76 inches Hg (1008.0 mb)
Winds: from the NW (310 degrees) at 5 MPH (4 knots; 2.1 m/s)
Visibility: 6 or more miles (10+ km)
Ceiling: at least 12,000 feet AGL
Clouds: few clouds at 3300 feet AGL
Weather: no significant weather observed at this time

METAR text: ZSFZ 092200Z VRB01MPS 9999 BKN050 28/25 Q1007 NOSIG
Conditions at: ZSFZ (FUZHOU , CN) observed 2200 UTC 09 August 2022
Temperature: 28.0°C (82°F)
Dewpoint: 25.0°C (77°F) [RH = 84%]
Pressure (altimeter): 29.73 inches Hg (1007.0 mb)
Winds: variable direction winds at 2 MPH (2 knots; 1.0 m/s)
Visibility: 6 or more miles (10+ km)
Ceiling: 5000 feet AGL
Clouds: broken clouds at 5000 feet AGL
Weather: no significant weather observed at this time

METAR text: ZSFZ 092100Z 33002MPS 290V010 9999 FEW015 28/25 Q1007 NOSIG
Conditions at: ZSFZ (FUZHOU , CN) observed 2100 UTC 09 August 2022
Temperature: 28.0°C (82°F)
Dewpoint: 25.0°C (77°F) [RH = 84%]
Pressure (altimeter): 29.73 inches Hg (1007.0 mb)
Winds: from the NNW (330 degrees) at 5 MPH (4 knots; 2.1 m/s)
Visibility: 6 or more miles (10+ km)
Ceiling: at least 12,000 feet AGL
Clouds: few clouds at 1500 feet AGL
Weather: no significant weather observed at this time

METAR text: ZSFZ 092000Z 32002MPS 290V010 9999 BKN015 29/25 Q1007 NOSIG
Conditions at: ZSFZ (FUZHOU , CN) observed 2000 UTC 09 August 2022
Temperature: 29.0°C (84°F)
Dewpoint: 25.0°C (77°F) [RH = 79%]
Pressure (altimeter): 29.73 inches Hg (1007.0 mb)
Winds: from the NW (320 degrees) at 5 MPH (4 knots; 2.1 m/s)
Visibility: 6 or more miles (10+ km)
Ceiling: 1500 feet AGL
Clouds: broken clouds at 1500 feet AGL
Weather: no significant weather observed at this time

METAR text: ZSFZ 091900Z 01003MPS 9999 SCT015 29/26 Q1007 NOSIG
Conditions at: ZSFZ (FUZHOU , CN) observed 1900 UTC 09 August 2022
Temperature: 29.0°C (84°F)
Dewpoint: 26.0°C (79°F) [RH = 84%]
Pressure (altimeter): 29.73 inches Hg (1007.0 mb)
Winds: from the N (10 degrees) at 7 MPH (6 knots; 3.1 m/s)
Visibility: 6 or more miles (10+ km)
Ceiling: at least 12,000 feet AGL
Clouds: scattered clouds at 1500 feet AGL
Weather: no significant weather observed at this time

METAR text: ZSFZ 091800Z 01003MPS 330V030 9999 SCT015 29/26 Q1007 NOSIG
Conditions at: ZSFZ (FUZHOU , CN) observed 1800 UTC 09 August 2022
Temperature: 29.0°C (84°F)
Dewpoint: 26.0°C (79°F) [RH = 84%]
Pressure (altimeter): 29.73 inches Hg (1007.0 mb)
Winds: from the N (10 degrees) at 7 MPH (6 knots; 3.1 m/s)
Visibility: 6 or more miles (10+ km)
Ceiling: at least 12,000 feet AGL
Clouds: scattered clouds at 1500 feet AGL
Weather: no significant weather observed at this time

METAR text: ZSFZ 091700Z 02003MPS 350V050 9999 SCT015 29/26 Q1008 NOSIG
Conditions at: ZSFZ (FUZHOU , CN) observed 1700 UTC 09 August 2022
Temperature: 29.0°C (84°F)
Dewpoint: 26.0°C (79°F) [RH = 84%]
Pressure (altimeter): 29.76 inches Hg (1008.0 mb)
Winds: from the NNE (20 degrees) at 7 MPH (6 knots; 3.1 m/s)
Visibility: 6 or more miles (10+ km)
Ceiling: at least 12,000 feet AGL
Clouds: scattered clouds at 1500 feet AGL
Weather: no significant weather observed at this time

METAR text: ZSFZ 091600Z 03004MPS 9999 BKN015 29/26 Q1008 NOSIG
Conditions at: ZSFZ (FUZHOU , CN) observed 1600 UTC 09 August 2022
Temperature: 29.0°C (84°F)
Dewpoint: 26.0°C (79°F) [RH = 84%]
Pressure (altimeter): 29.76 inches Hg (1008.0 mb)
Winds: from the NNE (30 degrees) at 9 MPH (8 knots; 4.1 m/s)
Visibility: 6 or more miles (10+ km)
Ceiling: 1500 feet AGL
Clouds: broken clouds at 1500 feet AGL
Weather: no significant weather observed at this time

METAR text: ZSFZ 091500Z 04004MPS 9999 SCT013 29/26 Q1009 NOSIG
Conditions at: ZSFZ (FUZHOU , CN) observed 1500 UTC 09 August 2022
Temperature: 29.0°C (84°F)
Dewpoint: 26.0°C (79°F) [RH = 84%]
Pressure (altimeter): 29.79 inches Hg (1009.0 mb)
Winds: from the NE (40 degrees) at 9 MPH (8 knots; 4.1 m/s)
Visibility: 6 or more miles (10+ km)
Ceiling: at least 12,000 feet AGL
Clouds: scattered clouds at 1300 feet AGL
Weather: no significant weather observed at this time

METAR text: ZSFZ 091400Z 02004MPS 9999 BKN013 29/26 Q1009 BECMG TL1530 BKN015
Conditions at: ZSFZ (FUZHOU , CN) observed 1400 UTC 09 August 2022
Temperature: 29.0°C (84°F)
Dewpoint: 26.0°C (79°F) [RH = 84%]
Pressure (altimeter): 29.79 inches Hg (1009.0 mb)
Winds: from the NNE (20 degrees) at 9 MPH (8 knots; 4.1 m/s)
Visibility: 6 or more miles (10+ km)
Ceiling: 1300 feet AGL
Clouds: broken clouds at 1300 feet AGL
Weather: no significant weather observed at this time

METAR text: ZSFZ 091300Z 02004MPS 350V050 9999 BKN015 29/26 Q1009 BECMG TL1330 BKN014
Conditions at: ZSFZ (FUZHOU , CN) observed 1300 UTC 09 August 2022
Temperature: 29.0°C (84°F)
Dewpoint: 26.0°C (79°F) [RH = 84%]
Pressure (altimeter): 29.79 inches Hg (1009.0 mb)
Winds: from the NNE (20 degrees) at 9 MPH (8 knots; 4.1 m/s)
Visibility: 6 or more miles (10+ km)
Ceiling: 1500 feet AGL
Clouds: broken clouds at 1500 feet AGL
Weather: no significant weather observed at this time

METAR text: ZSFZ 091200Z 05005MPS 9999 BKN015 30/26 Q1008 BECMG AT1300 BKN014
Conditions at: ZSFZ (FUZHOU , CN) observed 1200 UTC 09 August 2022
Temperature: 30.0°C (86°F)
Dewpoint: 26.0°C (79°F) [RH = 79%]
Pressure (altimeter): 29.76 inches Hg (1008.0 mb)
Winds: from the NE (50 degrees) at 12 MPH (10 knots; 5.1 m/s)
Visibility: 6 or more miles (10+ km)
Ceiling: 1500 feet AGL
Clouds: broken clouds at 1500 feet AGL
Weather: no significant weather observed at this time

METAR text: ZSFZ 091100Z 06005MPS 040V100 9999 SCT013 30/25 Q1007 NOSIG
Conditions at: ZSFZ (FUZHOU , CN) observed 1100 UTC 09 August 2022
Temperature: 30.0°C (86°F)
Dewpoint: 25.0°C (77°F) [RH = 75%]
Pressure (altimeter): 29.73 inches Hg (1007.0 mb)
Winds: from the ENE (60 degrees) at 12 MPH (10 knots; 5.1 m/s)
Visibility: 6 or more miles (10+ km)
Ceiling: at least 12,000 feet AGL
Clouds: scattered clouds at 1300 feet AGL
Weather: no significant weather observed at this time

METAR text: ZSFZ 091000Z 07005MPS 9999 BKN013 30/26 Q1007 NOSIG
Conditions at: ZSFZ (FUZHOU , CN) observed 1000 UTC 09 August 2022
Temperature: 30.0°C (86°F)
Dewpoint: 26.0°C (79°F) [RH = 79%]
Pressure (altimeter): 29.73 inches Hg (1007.0 mb)
Winds: from the ENE (70 degrees) at 12 MPH (10 knots; 5.1 m/s)
Visibility: 6 or more miles (10+ km)
Ceiling: 1300 feet AGL
Clouds: broken clouds at 1300 feet AGL
Weather: no significant weather observed at this time

METAR text: ZSFZ 090900Z 07005MPS 9999 BKN013 32/26 Q1006 BECMG AT1030 BKN015
Conditions at: ZSFZ (FUZHOU , CN) observed 0900 UTC 09 August 2022
Temperature: 32.0°C (90°F)
Dewpoint: 26.0°C (79°F) [RH = 71%]
Pressure (altimeter): 29.70 inches Hg (1006.0 mb)
Winds: from the ENE (70 degrees) at 12 MPH (10 knots; 5.1 m/s)
Visibility: 6 or more miles (10+ km)
Ceiling: 1300 feet AGL
Clouds: broken clouds at 1300 feet AGL
Weather: no significant weather observed at this time

METAR text: ZSFZ 090800Z 06007MPS 9999 FEW015 32/26 Q1006 NOSIG
Conditions at: ZSFZ (FUZHOU , CN) observed 0800 UTC 09 August 2022
Temperature: 32.0°C (90°F)
Dewpoint: 26.0°C (79°F) [RH = 71%]
Pressure (altimeter): 29.70 inches Hg (1006.0 mb)
Winds: from the ENE (60 degrees) at 16 MPH (14 knots; 7.2 m/s)
Visibility: 6 or more miles (10+ km)
Ceiling: at least 12,000 feet AGL
Clouds: few clouds at 1500 feet AGL
Weather: no significant weather observed at this time

METAR text: ZSFZ 090700Z 07006MPS 040V100 9999 FEW030 34/27 Q1006 NOSIG
Conditions at: ZSFZ (FUZHOU , CN) observed 0700 UTC 09 August 2022
Temperature: 34.0°C (93°F)
Dewpoint: 27.0°C (81°F) [RH = 67%]
Pressure (altimeter): 29.70 inches Hg (1006.0 mb)
Winds: from the ENE (70 degrees) at 14 MPH (12 knots; 6.2 m/s)
Visibility: 6 or more miles (10+ km)
Ceiling: at least 12,000 feet AGL
Clouds: few clouds at 3000 feet AGL
Weather: no significant weather observed at this time

METAR text: ZSFZ 090600Z 07006MPS 040V100 9999 FEW030 34/26 Q1006 NOSIG
Conditions at: ZSFZ (FUZHOU , CN) observed 0600 UTC 09 August 2022
Temperature: 34.0°C (93°F)
Dewpoint: 26.0°C (79°F) [RH = 63%]
Pressure (altimeter): 29.70 inches Hg (1006.0 mb)
Winds: from the ENE (70 degrees) at 14 MPH (12 knots; 6.2 m/s)
Visibility: 6 or more miles (10+ km)
Ceiling: at least 12,000 feet AGL
Clouds: few clouds at 3000 feet AGL
Weather: no significant weather observed at this time

METAR text: ZSFZ 090500Z 06008MPS CAVOK 34/24 Q1007 NOSIG
Conditions at: ZSFZ (FUZHOU , CN) observed 0500 UTC 09 August 2022
Temperature: 34.0°C (93°F)
Dewpoint: 24.0°C (75°F) [RH = 56%]
Pressure (altimeter): 29.73 inches Hg (1007.0 mb)
Winds: from the ENE (60 degrees) at 18 MPH (16 knots; 8.2 m/s)
Visibility: 6 or more miles (10+ km)
Ceiling: ceiling and visibility are OK
Clouds: unknown
Weather: no significant weather observed at this time

METAR text: ZSFZ 090400Z 06007MPS 9999 FEW030 34/25 Q1007 NOSIG
Conditions at: ZSFZ (FUZHOU , CN) observed 0400 UTC 09 August 2022
Temperature: 34.0°C (93°F)
Dewpoint: 25.0°C (77°F) [RH = 60%]
Pressure (altimeter): 29.73 inches Hg (1007.0 mb)
Winds: from the ENE (60 degrees) at 16 MPH (14 knots; 7.2 m/s)
Visibility: 6 or more miles (10+ km)
Ceiling: at least 12,000 feet AGL
Clouds: few clouds at 3000 feet AGL
Weather: no significant weather observed at this time

METAR text: ZSFZ 090300Z 07006MPS 9999 FEW030 34/24 Q1008 NOSIG
Conditions at: ZSFZ (FUZHOU , CN) observed 0300 UTC 09 August 2022
Temperature: 34.0°C (93°F)
Dewpoint: 24.0°C (75°F) [RH = 56%]
Pressure (altimeter): 29.76 inches Hg (1008.0 mb)
Winds: from the ENE (70 degrees) at 14 MPH (12 knots; 6.2 m/s)
Visibility: 6 or more miles (10+ km)
Ceiling: at least 12,000 feet AGL
Clouds: few clouds at 3000 feet AGL
Weather: no significant weather observed at this time

Forecast for: ZSFZ (FUZHOU , CN)
Text: TAF ZSFZ 100912Z 1012/1112 17003MPS 8000 SCT020 TX35/1106Z TN27/1021Z
Forecast period: 1200 UTC 10 August 2022 to 0400 UTC 11 August 2022
Forecast type: FROM: standard forecast or significant change
Winds: from the S (170 degrees) at 7 MPH (6 knots; 3.1 m/s)
Visibility: 5 miles (8 km)
Ceiling: at least 12,000 feet AGL
Clouds: scattered clouds at 2000 feet AGL
Weather: no significant weather forecast for this period
Text: BECMG 1104/1105 19008MPS
Forecast period: 0400 to 1200 UTC 11 August 2022
Forecast type: BECOMING: Conditions expected to become as follows by 0500 UTC 11 August 2022
Winds: from the S (190 degrees) at 18 MPH (16 knots; 8.2 m/s)
Visibility: 5 miles (8 km)
Ceiling: at least 12,000 feet AGL
Clouds: scattered clouds at 2000 feet AGL
Weather: no significant weather forecast for this period